sensor_id;sensor_type;location;lat;lon;timestamp;pressure;altitude;pressure_sealevel;temperature;humidity
40794;BME280;26502;51.886;15.604;2023-07-22T00:03:38;100234.05;;;16.22;65.19
40794;BME280;26502;51.886;15.604;2023-07-22T00:08:42;100232.88;;;16.00;65.48
40794;BME280;26502;51.886;15.604;2023-07-22T00:13:45;100235.11;;;15.90;65.84
40794;BME280;26502;51.886;15.604;2023-07-22T00:18:48;100236.01;;;15.78;65.86
40794;BME280;26502;51.886;15.604;2023-07-22T00:23:51;100234.92;;;15.81;66.13
40794;BME280;26502;51.886;15.604;2023-07-22T00:28:56;100236.83;;;15.83;65.95
40794;BME280;26502;51.886;15.604;2023-07-22T00:33:59;100240.83;;;15.76;65.90
40794;BME280;26502;51.886;15.604;2023-07-22T00:39:03;100239.97;;;15.69;66.18
40794;BME280;26502;51.886;15.604;2023-07-22T00:44:08;100239.13;;;15.74;66.16
40794;BME280;26502;51.886;15.604;2023-07-22T00:49:13;100241.79;;;15.71;66.29
40794;BME280;26502;51.886;15.604;2023-07-22T00:54:17;100239.50;;;15.47;66.66
40794;BME280;26502;51.886;15.604;2023-07-22T00:59:21;100245.27;;;15.43;66.94
40794;BME280;26502;51.886;15.604;2023-07-22T01:04:25;100234.43;;;15.45;66.97
40794;BME280;26502;51.886;15.604;2023-07-22T01:09:35;100227.19;;;15.61;66.84
40794;BME280;26502;51.886;15.604;2023-07-22T01:14:39;100235.03;;;15.62;66.63
40794;BME280;26502;51.886;15.604;2023-07-22T01:19:43;100238.85;;;15.31;66.72
40794;BME280;26502;51.886;15.604;2023-07-22T01:24:47;100237.27;;;14.99;67.10
40794;BME280;26502;51.886;15.604;2023-07-22T01:29:51;100237.20;;;14.91;67.45
40794;BME280;26502;51.886;15.604;2023-07-22T01:34:54;100237.10;;;14.80;67.61
40794;BME280;26502;51.886;15.604;2023-07-22T01:39:58;100236.77;;;14.68;67.75
40794;BME280;26502;51.886;15.604;2023-07-22T01:45:01;100245.53;;;14.63;67.99
40794;BME280;26502;51.886;15.604;2023-07-22T01:50:06;100243.35;;;14.57;68.27
40794;BME280;26502;51.886;15.604;2023-07-22T01:55:10;100239.20;;;14.58;68.39
40794;BME280;26502;51.886;15.604;2023-07-22T02:00:14;100245.46;;;14.58;68.37
40794;BME280;26502;51.886;15.604;2023-07-22T02:05:18;100254.87;;;14.50;68.42
40794;BME280;26502;51.886;15.604;2023-07-22T02:10:21;100255.58;;;14.40;68.66
40794;BME280;26502;51.886;15.604;2023-07-22T02:15:25;100249.86;;;14.34;68.80
40794;BME280;26502;51.886;15.604;2023-07-22T02:20:28;100248.84;;;14.36;68.90
40794;BME280;26502;51.886;15.604;2023-07-22T02:25:31;100248.69;;;14.39;68.80
40794;BME280;26502;51.886;15.604;2023-07-22T02:30:35;100248.58;;;14.24;68.63
40794;BME280;26502;51.886;15.604;2023-07-22T02:35:38;100256.20;;;14.22;68.81
40794;BME280;26502;51.886;15.604;2023-07-22T02:40:41;100257.02;;;14.33;68.99
40794;BME280;26502;51.886;15.604;2023-07-22T02:45:46;100256.15;;;14.46;69.08
40794;BME280;26502;51.886;15.604;2023-07-22T02:50:50;100253.52;;;14.58;68.67
40794;BME280;26502;51.886;15.604;2023-07-22T02:55:53;100256.20;;;14.58;68.40
40794;BME280;26502;51.886;15.604;2023-07-22T03:00:57;100260.02;;;14.50;68.20
40794;BME280;26502;51.886;15.604;2023-07-22T03:06:00;100268.75;;;14.28;68.22
40794;BME280;26502;51.886;15.604;2023-07-22T03:11:04;100277.38;;;14.07;68.46
40794;BME280;26502;51.886;15.604;2023-07-22T03:16:07;100280.57;;;14.18;68.69
40794;BME280;26502;51.886;15.604;2023-07-22T03:21:11;100280.95;;;14.14;68.69
40794;BME280;26502;51.886;15.604;2023-07-22T03:26:14;100286.89;;;13.93;68.91
40794;BME280;26502;51.886;15.604;2023-07-22T03:31:18;100281.34;;;13.89;69.45
40794;BME280;26502;51.886;15.604;2023-07-22T03:36:21;100288.83;;;13.93;69.35
40794;BME280;26502;51.886;15.604;2023-07-22T03:41:24;100293.64;;;13.80;69.54
40794;BME280;26502;51.886;15.604;2023-07-22T03:46:28;100293.23;;;13.77;69.83
40794;BME280;26502;51.886;15.604;2023-07-22T03:51:31;100290.97;;;13.79;70.26
40794;BME280;26502;51.886;15.604;2023-07-22T03:56:35;100289.07;;;13.92;70.35
40794;BME280;26502;51.886;15.604;2023-07-22T04:01:38;100295.66;;;13.99;70.55
40794;BME280;26502;51.886;15.604;2023-07-22T04:06:41;100304.39;;;13.96;70.63
40794;BME280;26502;51.886;15.604;2023-07-22T04:11:44;100313.74;;;13.94;70.77
40794;BME280;26502;51.886;15.604;2023-07-22T04:16:48;100314.89;;;14.00;70.93
40794;BME280;26502;51.886;15.604;2023-07-22T04:21:52;100312.44;;;14.05;71.01
40794;BME280;26502;51.886;15.604;2023-07-22T04:26:57;100322.89;;;13.97;71.14
40794;BME280;26502;51.886;15.604;2023-07-22T04:32:03;100320.41;;;13.97;71.26
40794;BME280;26502;51.886;15.604;2023-07-22T04:37:07;100325.02;;;14.04;71.50
40794;BME280;26502;51.886;15.604;2023-07-22T04:42:10;100327.70;;;14.08;71.62
40794;BME280;26502;51.886;15.604;2023-07-22T04:47:13;100331.37;;;14.09;71.78
40794;BME280;26502;51.886;15.604;2023-07-22T04:52:17;100330.81;;;14.16;71.99
40794;BME280;26502;51.886;15.604;2023-07-22T04:57:20;100337.84;;;14.25;72.09
40794;BME280;26502;51.886;15.604;2023-07-22T05:02:24;100351.45;;;14.28;72.33
40794;BME280;26502;51.886;15.604;2023-07-22T05:07:27;100351.31;;;14.37;73.03
40794;BME280;26502;51.886;15.604;2023-07-22T05:12:30;100350.73;;;14.51;73.36
40794;BME280;26502;51.886;15.604;2023-07-22T05:23:07;100369.82;;;14.69;74.10
40794;BME280;26502;51.886;15.604;2023-07-22T05:28:11;100377.21;;;14.64;74.13
40794;BME280;26502;51.886;15.604;2023-07-22T05:33:14;100378.71;;;14.67;74.11
40794;BME280;26502;51.886;15.604;2023-07-22T05:38:18;100380.45;;;14.68;74.72
40794;BME280;26502;51.886;15.604;2023-07-22T05:43:21;100384.89;;;14.81;74.48
40794;BME280;26502;51.886;15.604;2023-07-22T05:48:25;100391.71;;;14.94;74.70
40794;BME280;26502;51.886;15.604;2023-07-22T05:53:28;100394.40;;;15.13;74.56
40794;BME280;26502;51.886;15.604;2023-07-22T05:58:31;100394.34;;;15.33;74.46
40794;BME280;26502;51.886;15.604;2023-07-22T06:03:35;100395.04;;;15.46;74.03
40794;BME280;26502;51.886;15.604;2023-07-22T06:08:38;100405.17;;;15.48;74.37
40794;BME280;26502;51.886;15.604;2023-07-22T06:13:41;100413.84;;;15.65;74.14
40794;BME280;26502;51.886;15.604;2023-07-22T06:18:45;100414.58;;;15.74;73.80
40794;BME280;26502;51.886;15.604;2023-07-22T06:23:48;100413.73;;;15.86;73.06
40794;BME280;26502;51.886;15.604;2023-07-22T06:28:51;100417.59;;;15.99;73.00
40794;BME280;26502;51.886;15.604;2023-07-22T06:33:55;100412.81;;;16.14;72.24
40794;BME280;26502;51.886;15.604;2023-07-22T06:38:58;100414.79;;;16.22;71.79
40794;BME280;26502;51.886;15.604;2023-07-22T06:44:01;100413.67;;;16.41;71.45
40794;BME280;26502;51.886;15.604;2023-07-22T06:49:05;100413.44;;;16.45;70.39
40794;BME280;26502;51.886;15.604;2023-07-22T06:54:08;100419.42;;;16.70;70.50
40794;BME280;26502;51.886;15.604;2023-07-22T06:59:12;100424.04;;;16.91;69.36
40794;BME280;26502;51.886;15.604;2023-07-22T07:04:15;100430.89;;;16.94;68.23
40794;BME280;26502;51.886;15.604;2023-07-22T07:09:19;100438.71;;;17.18;68.04
40794;BME280;26502;51.886;15.604;2023-07-22T07:14:22;100442.02;;;17.30;66.49
40794;BME280;26502;51.886;15.604;2023-07-22T07:19:25;100447.52;;;17.37;64.98
40794;BME280;26502;51.886;15.604;2023-07-22T07:24:29;100453.17;;;17.61;65.33
40794;BME280;26502;51.886;15.604;2023-07-22T07:29:32;100447.33;;;17.84;64.22
40794;BME280;26502;51.886;15.604;2023-07-22T07:34:35;100454.20;;;17.75;62.58
40794;BME280;26502;51.886;15.604;2023-07-22T07:39:39;100458.00;;;17.89;62.32
40794;BME280;26502;51.886;15.604;2023-07-22T07:44:42;100467.75;;;18.04;62.07
40794;BME280;26502;51.886;15.604;2023-07-22T07:49:46;100469.95;;;18.14;60.77
40794;BME280;26502;51.886;15.604;2023-07-22T07:54:49;100482.98;;;18.03;60.37
40794;BME280;26502;51.886;15.604;2023-07-22T07:59:53;100482.02;;;17.98;60.22
40794;BME280;26502;51.886;15.604;2023-07-22T08:04:56;100489.48;;;18.15;58.76
40794;BME280;26502;51.886;15.604;2023-07-22T08:09:59;100492.20;;;18.04;57.92
40794;BME280;26502;51.886;15.604;2023-07-22T08:15:04;100497.94;;;18.01;57.67
40794;BME280;26502;51.886;15.604;2023-07-22T08:20:09;100500.09;;;18.26;57.18
40794;BME280;26502;51.886;15.604;2023-07-22T08:25:13;100501.56;;;18.49;55.13
40794;BME280;26502;51.886;15.604;2023-07-22T08:30:16;100497.30;;;18.64;55.52
40794;BME280;26502;51.886;15.604;2023-07-22T08:35:19;100495.08;;;18.84;55.66
40794;BME280;26502;51.886;15.604;2023-07-22T08:40:24;100498.33;;;18.91;54.86
40794;BME280;26502;51.886;15.604;2023-07-22T08:45:30;100504.99;;;19.12;55.02
40794;BME280;26502;51.886;15.604;2023-07-22T08:50:40;100507.51;;;19.27;53.84
40794;BME280;26502;51.886;15.604;2023-07-22T08:55:44;100514.02;;;19.27;53.48
40794;BME280;26502;51.886;15.604;2023-07-22T09:00:48;100514.59;;;19.39;53.12
40794;BME280;26502;51.886;15.604;2023-07-22T09:05:52;100516.98;;;19.55;52.17
40794;BME280;26502;51.886;15.604;2023-07-22T09:10:56;100512.86;;;19.58;51.02
40794;BME280;26502;51.886;15.604;2023-07-22T09:16:00;100513.03;;;19.18;51.48
40794;BME280;26502;51.886;15.604;2023-07-22T09:21:04;100502.92;;;19.63;51.31
40794;BME280;26502;51.886;15.604;2023-07-22T09:26:12;100509.63;;;19.85;50.09
40794;BME280;26502;51.886;15.604;2023-07-22T09:31:16;100511.39;;;19.76;49.52
40794;BME280;26502;51.886;15.604;2023-07-22T09:36:19;100511.95;;;20.00;49.03
40794;BME280;26502;51.886;15.604;2023-07-22T09:41:28;100516.20;;;19.79;49.16
40794;BME280;26502;51.886;15.604;2023-07-22T09:46:32;100514.60;;;19.64;48.57
40794;BME280;26502;51.886;15.604;2023-07-22T09:51:37;100512.79;;;19.91;49.06
40794;BME280;26502;51.886;15.604;2023-07-22T09:56:45;100515.66;;;19.99;48.43
40794;BME280;26502;51.886;15.604;2023-07-22T10:01:49;100512.27;;;20.30;48.15
40794;BME280;26502;51.886;15.604;2023-07-22T10:06:54;100508.27;;;20.79;47.90
40794;BME280;26502;51.886;15.604;2023-07-22T10:11:58;100514.20;;;20.80;45.92
40794;BME280;26502;51.886;15.604;2023-07-22T10:17:01;100509.84;;;20.33;45.03
40794;BME280;26502;51.886;15.604;2023-07-22T10:22:06;100510.06;;;20.51;45.06
40794;BME280;26502;51.886;15.604;2023-07-22T10:27:13;100514.00;;;20.61;45.52
40794;BME280;26502;51.886;15.604;2023-07-22T10:32:17;100504.73;;;21.11;45.70
40794;BME280;26502;51.886;15.604;2023-07-22T10:37:21;100509.21;;;21.00;44.31
40794;BME280;26502;51.886;15.604;2023-07-22T10:42:32;100507.84;;;20.92;44.13
40794;BME280;26502;51.886;15.604;2023-07-22T10:47:36;100505.95;;;21.18;43.22
40794;BME280;26502;51.886;15.604;2023-07-22T10:52:42;100501.61;;;20.91;41.88
40794;BME280;26502;51.886;15.604;2023-07-22T10:57:51;100516.58;;;20.73;42.44
40794;BME280;26502;51.886;15.604;2023-07-22T11:03:09;100509.52;;;21.19;42.57
40794;BME280;26502;51.886;15.604;2023-07-22T11:08:13;100500.16;;;21.27;42.13
40794;BME280;26502;51.886;15.604;2023-07-22T11:13:17;100499.34;;;21.74;41.91
40794;BME280;26502;51.886;15.604;2023-07-22T11:18:20;100491.98;;;21.97;41.82
40794;BME280;26502;51.886;15.604;2023-07-22T11:23:23;100491.80;;;22.28;40.57
40794;BME280;26502;51.886;15.604;2023-07-22T11:28:27;100491.80;;;22.83;40.53
40794;BME280;26502;51.886;15.604;2023-07-22T11:33:39;100489.95;;;22.96;39.93
40794;BME280;26502;51.886;15.604;2023-07-22T11:38:43;100486.51;;;23.09;39.19
40794;BME280;26502;51.886;15.604;2023-07-22T11:43:46;100488.41;;;23.18;38.64
40794;BME280;26502;51.886;15.604;2023-07-22T11:48:50;100482.60;;;23.34;37.06
40794;BME280;26502;51.886;15.604;2023-07-22T11:53:54;100487.58;;;22.94;36.88
40794;BME280;26502;51.886;15.604;2023-07-22T11:58:58;100479.30;;;22.56;36.54
40794;BME280;26502;51.886;15.604;2023-07-22T12:04:01;100477.48;;;22.79;36.45
40794;BME280;26502;51.886;15.604;2023-07-22T12:09:06;100476.64;;;22.91;36.77
40794;BME280;26502;51.886;15.604;2023-07-22T12:14:11;100476.09;;;23.18;36.61
40794;BME280;26502;51.886;15.604;2023-07-22T12:19:15;100476.05;;;23.63;35.47
40794;BME280;26502;51.886;15.604;2023-07-22T12:24:18;100475.37;;;23.55;34.16
40794;BME280;26502;51.886;15.604;2023-07-22T12:29:21;100476.20;;;23.83;34.15
40794;BME280;26502;51.886;15.604;2023-07-22T12:34:25;100475.70;;;23.97;33.12
40794;BME280;26502;51.886;15.604;2023-07-22T12:39:28;100469.86;;;23.90;33.14
40794;BME280;26502;51.886;15.604;2023-07-22T12:44:31;100471.23;;;23.92;32.17
40794;BME280;26502;51.886;15.604;2023-07-22T12:49:35;100468.10;;;23.67;32.60
40794;BME280;26502;51.886;15.604;2023-07-22T12:54:39;100469.97;;;23.70;33.49
40794;BME280;26502;51.886;15.604;2023-07-22T12:59:42;100469.10;;;23.90;33.81
40794;BME280;26502;51.886;15.604;2023-07-22T13:04:45;100470.92;;;24.19;33.39
40794;BME280;26502;51.886;15.604;2023-07-22T13:09:53;100475.80;;;24.55;32.55
40794;BME280;26502;51.886;15.604;2023-07-22T13:15:01;100471.55;;;24.44;32.93
40794;BME280;26502;51.886;15.604;2023-07-22T13:20:06;100472.96;;;24.42;32.59
40794;BME280;26502;51.886;15.604;2023-07-22T13:25:11;100485.84;;;24.05;32.66
40794;BME280;26502;51.886;15.604;2023-07-22T13:30:14;100486.36;;;23.73;32.90
40794;BME280;26502;51.886;15.604;2023-07-22T13:35:18;100487.14;;;23.93;32.62
40794;BME280;26502;51.886;15.604;2023-07-22T13:40:21;100481.92;;;24.16;32.82
40794;BME280;26502;51.886;15.604;2023-07-22T13:45:25;100480.34;;;24.35;33.04
40794;BME280;26502;51.886;15.604;2023-07-22T13:50:29;100474.71;;;24.33;32.60
40794;BME280;26502;51.886;15.604;2023-07-22T13:55:32;100471.88;;;24.05;32.95
40794;BME280;26502;51.886;15.604;2023-07-22T14:00:35;100473.27;;;24.10;32.92
40794;BME280;26502;51.886;15.604;2023-07-22T14:05:39;100469.39;;;24.17;33.08
40794;BME280;26502;51.886;15.604;2023-07-22T14:10:43;100475.73;;;24.28;33.57
40794;BME280;26502;51.886;15.604;2023-07-22T14:15:46;100476.10;;;24.32;33.09
40794;BME280;26502;51.886;15.604;2023-07-22T14:20:50;100468.17;;;24.32;33.20
40794;BME280;26502;51.886;15.604;2023-07-22T14:25:53;100465.98;;;24.53;33.11
40794;BME280;26502;51.886;15.604;2023-07-22T14:30:56;100457.77;;;24.77;33.14
40794;BME280;26502;51.886;15.604;2023-07-22T14:36:00;100452.29;;;25.03;32.21
40794;BME280;26502;51.886;15.604;2023-07-22T14:41:03;100450.48;;;24.90;31.95
40794;BME280;26502;51.886;15.604;2023-07-22T14:46:07;100459.01;;;24.86;31.36
40794;BME280;26502;51.886;15.604;2023-07-22T14:51:10;100443.52;;;25.15;31.54
40794;BME280;26502;51.886;15.604;2023-07-22T14:56:13;100445.65;;;25.12;31.44
40794;BME280;26502;51.886;15.604;2023-07-22T15:01:17;100446.81;;;25.35;31.32
40794;BME280;26502;51.886;15.604;2023-07-22T15:06:21;100439.51;;;25.30;31.38
40794;BME280;26502;51.886;15.604;2023-07-22T15:11:25;100447.30;;;24.94;31.47
40794;BME280;26502;51.886;15.604;2023-07-22T15:16:28;100453.64;;;24.70;31.77
40794;BME280;26502;51.886;15.604;2023-07-22T15:21:31;100458.20;;;24.21;31.96
40794;BME280;26502;51.886;15.604;2023-07-22T15:26:35;100461.38;;;23.69;32.27
40794;BME280;26502;51.886;15.604;2023-07-22T15:31:38;100457.70;;;23.29;32.93
40794;BME280;26502;51.886;15.604;2023-07-22T15:36:42;100457.54;;;23.55;33.44
40794;BME280;26502;51.886;15.604;2023-07-22T15:41:45;100453.02;;;24.09;33.36
40794;BME280;26502;51.886;15.604;2023-07-22T15:46:48;100445.27;;;24.28;33.14
40794;BME280;26502;51.886;15.604;2023-07-22T15:51:51;100445.73;;;24.56;33.40
40794;BME280;26502;51.886;15.604;2023-07-22T15:56:55;100455.62;;;24.32;33.01
40794;BME280;26502;51.886;15.604;2023-07-22T16:01:58;100458.84;;;23.99;33.15
40794;BME280;26502;51.886;15.604;2023-07-22T16:07:03;100456.77;;;24.01;33.31
40794;BME280;26502;51.886;15.604;2023-07-22T16:12:10;100461.56;;;23.95;33.49
40794;BME280;26502;51.886;15.604;2023-07-22T16:17:13;100461.34;;;23.88;33.36
40794;BME280;26502;51.886;15.604;2023-07-22T16:22:16;100459.76;;;24.01;33.40
40794;BME280;26502;51.886;15.604;2023-07-22T16:27:20;100460.61;;;23.66;33.29
40794;BME280;26502;51.886;15.604;2023-07-22T16:32:23;100461.86;;;23.35;33.68
40794;BME280;26502;51.886;15.604;2023-07-22T16:37:27;100465.38;;;23.12;33.86
40794;BME280;26502;51.886;15.604;2023-07-22T16:42:30;100460.90;;;22.99;33.91
40794;BME280;26502;51.886;15.604;2023-07-22T16:47:33;100460.30;;;22.89;34.14
40794;BME280;26502;51.886;15.604;2023-07-22T16:52:36;100458.75;;;22.78;34.66
40794;BME280;26502;51.886;15.604;2023-07-22T16:57:40;100458.10;;;22.83;34.83
40794;BME280;26502;51.886;15.604;2023-07-22T17:02:44;100451.56;;;23.04;35.03
40794;BME280;26502;51.886;15.604;2023-07-22T17:07:48;100448.92;;;23.01;34.86
40794;BME280;26502;51.886;15.604;2023-07-22T17:12:51;100446.14;;;22.88;35.06
40794;BME280;26502;51.886;15.604;2023-07-22T17:17:55;100443.50;;;22.78;35.17
40794;BME280;26502;51.886;15.604;2023-07-22T17:22:58;100446.85;;;22.65;35.36
40794;BME280;26502;51.886;15.604;2023-07-22T17:28:01;100445.85;;;22.47;35.53
40794;BME280;26502;51.886;15.604;2023-07-22T17:33:05;100449.34;;;22.36;35.70
40794;BME280;26502;51.886;15.604;2023-07-22T17:38:10;100442.81;;;22.32;35.87
40794;BME280;26502;51.886;15.604;2023-07-22T17:43:13;100438.21;;;22.26;35.87
40794;BME280;26502;51.886;15.604;2023-07-22T17:48:17;100436.95;;;22.17;36.03
40794;BME280;26502;51.886;15.604;2023-07-22T17:53:20;100438.52;;;22.14;36.31
40794;BME280;26502;51.886;15.604;2023-07-22T17:58:23;100439.63;;;22.07;36.37
40794;BME280;26502;51.886;15.604;2023-07-22T18:03:27;100436.30;;;22.06;36.39
40794;BME280;26502;51.886;15.604;2023-07-22T18:08:30;100431.32;;;21.92;36.73
40794;BME280;26502;51.886;15.604;2023-07-22T18:13:33;100436.70;;;21.86;36.73
40794;BME280;26502;51.886;15.604;2023-07-22T18:18:37;100434.71;;;21.82;36.98
40794;BME280;26502;51.886;15.604;2023-07-22T18:23:40;100431.42;;;21.86;37.63
40794;BME280;26502;51.886;15.604;2023-07-22T18:28:43;100434.35;;;21.82;37.99
40794;BME280;26502;51.886;15.604;2023-07-22T18:33:48;100434.25;;;21.76;38.21
40794;BME280;26502;51.886;15.604;2023-07-22T18:38:51;100438.82;;;21.63;38.60
40794;BME280;26502;51.886;15.604;2023-07-22T18:43:55;100438.28;;;21.47;38.64
40794;BME280;26502;51.886;15.604;2023-07-22T18:48:58;100443.91;;;21.33;38.75
40794;BME280;26502;51.886;15.604;2023-07-22T18:54:03;100443.25;;;21.12;39.16
40794;BME280;26502;51.886;15.604;2023-07-22T18:59:07;100444.77;;;20.91;39.52
40794;BME280;26502;51.886;15.604;2023-07-22T19:04:10;100449.83;;;20.72;39.93
40794;BME280;26502;51.886;15.604;2023-07-22T19:09:14;100461.59;;;20.55;40.09
40794;BME280;26502;51.886;15.604;2023-07-22T19:14:18;100464.44;;;20.37;40.44
40794;BME280;26502;51.886;15.604;2023-07-22T19:19:23;100469.72;;;20.22;40.79
40794;BME280;26502;51.886;15.604;2023-07-22T19:24:26;100478.96;;;20.03;40.97
40794;BME280;26502;51.886;15.604;2023-07-22T19:29:30;100484.95;;;19.90;41.46
40794;BME280;26502;51.886;15.604;2023-07-22T19:34:33;100484.92;;;19.83;41.75
40794;BME280;26502;51.886;15.604;2023-07-22T19:39:37;100486.34;;;19.78;41.76
40794;BME280;26502;51.886;15.604;2023-07-22T19:44:40;100483.52;;;19.57;42.09
40794;BME280;26502;51.886;15.604;2023-07-22T19:49:43;100480.46;;;19.43;42.15
40794;BME280;26502;51.886;15.604;2023-07-22T19:54:47;100481.94;;;19.35;42.40
40794;BME280;26502;51.886;15.604;2023-07-22T19:59:50;100478.86;;;19.15;42.79
40794;BME280;26502;51.886;15.604;2023-07-22T20:04:54;100475.42;;;19.02;42.99
40794;BME280;26502;51.886;15.604;2023-07-22T20:09:58;100476.44;;;18.93;43.14
40794;BME280;26502;51.886;15.604;2023-07-22T20:15:01;100476.11;;;18.79;43.09
40794;BME280;26502;51.886;15.604;2023-07-22T20:20:07;100474.13;;;18.51;43.30
40794;BME280;26502;51.886;15.604;2023-07-22T20:25:10;100480.90;;;18.36;43.84
40794;BME280;26502;51.886;15.604;2023-07-22T20:30:13;100479.42;;;18.31;43.86
40794;BME280;26502;51.886;15.604;2023-07-22T20:35:17;100482.66;;;18.10;43.84
40794;BME280;26502;51.886;15.604;2023-07-22T20:40:21;100491.58;;;17.97;44.13
40794;BME280;26502;51.886;15.604;2023-07-22T20:45:24;100498.54;;;17.81;44.51
40794;BME280;26502;51.886;15.604;2023-07-22T20:50:28;100493.13;;;17.62;44.61
40794;BME280;26502;51.886;15.604;2023-07-22T20:55:32;100492.86;;;17.44;45.18
40794;BME280;26502;51.886;15.604;2023-07-22T21:00:36;100491.36;;;17.25;45.47
40794;BME280;26502;51.886;15.604;2023-07-22T21:05:39;100488.88;;;17.16;45.81
40794;BME280;26502;51.886;15.604;2023-07-22T21:10:43;100489.46;;;17.15;46.03
40794;BME280;26502;51.886;15.604;2023-07-22T21:15:46;100482.16;;;17.03;46.43
40794;BME280;26502;51.886;15.604;2023-07-22T21:20:49;100482.42;;;17.07;46.45
40794;BME280;26502;51.886;15.604;2023-07-22T21:25:55;100481.68;;;16.87;46.44
40794;BME280;26502;51.886;15.604;2023-07-22T21:31:00;100483.33;;;16.66;47.02
40794;BME280;26502;51.886;15.604;2023-07-22T21:36:08;100485.92;;;16.61;47.13
40794;BME280;26502;51.886;15.604;2023-07-22T21:41:12;100494.01;;;16.49;47.46
40794;BME280;26502;51.886;15.604;2023-07-22T21:46:15;100493.73;;;16.42;47.63
40794;BME280;26502;51.886;15.604;2023-07-22T21:51:18;100495.30;;;16.12;47.65
40794;BME280;26502;51.886;15.604;2023-07-22T21:56:22;100505.83;;;15.85;48.13
40794;BME280;26502;51.886;15.604;2023-07-22T22:01:25;100501.77;;;15.84;48.68
40794;BME280;26502;51.886;15.604;2023-07-22T22:06:28;100499.56;;;15.72;48.71
40794;BME280;26502;51.886;15.604;2023-07-22T22:11:31;100499.41;;;15.58;49.22
40794;BME280;26502;51.886;15.604;2023-07-22T22:16:35;100495.38;;;15.60;49.25
40794;BME280;26502;51.886;15.604;2023-07-22T22:21:38;100495.76;;;15.50;49.40
40794;BME280;26502;51.886;15.604;2023-07-22T22:26:41;100488.27;;;15.37;49.54
40794;BME280;26502;51.886;15.604;2023-07-22T22:31:45;100493.52;;;15.26;50.02
40794;BME280;26502;51.886;15.604;2023-07-22T22:36:49;100496.80;;;15.18;50.12
40794;BME280;26502;51.886;15.604;2023-07-22T22:41:52;100496.08;;;15.18;50.30
40794;BME280;26502;51.886;15.604;2023-07-22T22:46:55;100489.20;;;15.00;50.41
40794;BME280;26502;51.886;15.604;2023-07-22T22:52:00;100478.32;;;14.96;50.60
40794;BME280;26502;51.886;15.604;2023-07-22T22:57:04;100482.17;;;14.84;51.00
40794;BME280;26502;51.886;15.604;2023-07-22T23:02:07;100479.50;;;14.81;51.29
40794;BME280;26502;51.886;15.604;2023-07-22T23:07:10;100473.16;;;14.79;51.19
40794;BME280;26502;51.886;15.604;2023-07-22T23:12:14;100473.04;;;14.68;51.58
40794;BME280;26502;51.886;15.604;2023-07-22T23:17:17;100471.13;;;14.67;51.64
40794;BME280;26502;51.886;15.604;2023-07-22T23:22:21;100468.85;;;14.59;51.84
40794;BME280;26502;51.886;15.604;2023-07-22T23:27:24;100463.36;;;14.50;51.84
40794;BME280;26502;51.886;15.604;2023-07-22T23:32:28;100462.52;;;14.39;51.97
40794;BME280;26502;51.886;15.604;2023-07-22T23:37:31;100459.95;;;14.30;52.24
40794;BME280;26502;51.886;15.604;2023-07-22T23:42:34;100463.06;;;14.25;52.29
40794;BME280;26502;51.886;15.604;2023-07-22T23:47:37;100461.69;;;14.14;52.65
40794;BME280;26502;51.886;15.604;2023-07-22T23:52:41;100455.13;;;14.01;52.77
40794;BME280;26502;51.886;15.604;2023-07-22T23:57:44;100448.02;;;13.97;53.07
